createdAt,value
2023-09-11T00:00:26.043Z,9.10
2023-09-11T00:02:54.913Z,8.90
2023-09-11T00:05:23.774Z,9.83
2023-09-11T00:07:52.613Z,7.73
2023-09-11T00:10:23.000Z,8.43
2023-09-11T00:12:51.733Z,11.20
2023-09-11T00:15:20.489Z,7.27
2023-09-11T00:17:49.216Z,9.63
2023-09-11T00:20:18.256Z,7.63
2023-09-11T00:22:47.071Z,8.53
2023-09-11T00:25:15.738Z,9.07
2023-09-11T00:27:45.806Z,8.27
2023-09-11T00:30:14.839Z,7.87
2023-09-11T00:32:43.732Z,9.00
2023-09-11T00:35:12.563Z,8.03
2023-09-11T00:37:41.409Z,7.87
2023-09-11T00:40:11.242Z,8.87
2023-09-11T00:42:40.032Z,9.63
2023-09-11T00:45:11.222Z,7.57
2023-09-11T00:47:40.893Z,9.00
2023-09-11T00:50:13.028Z,10.37
2023-09-11T00:52:42.752Z,8.67
2023-09-11T00:55:12.226Z,6.93
2023-09-11T00:57:41.274Z,7.03
2023-09-11T01:00:15.077Z,8.53
2023-09-11T01:02:44.313Z,8.90
2023-09-11T01:05:13.249Z,9.10
2023-09-11T01:07:42.101Z,9.83
2023-09-11T01:10:11.853Z,8.67
2023-09-11T01:12:42.090Z,10.03
2023-09-11T01:15:13.232Z,7.83
2023-09-11T01:17:48.579Z,8.37
2023-09-11T01:20:50.603Z,9.57
2023-09-11T01:24:00.935Z,8.83
2023-09-11T01:27:11.653Z,10.73
2023-09-11T01:29:43.389Z,9.40
2023-09-11T01:32:14.412Z,8.23
2023-09-11T01:34:43.162Z,7.33
2023-09-11T01:37:11.941Z,7.30
2023-09-11T01:39:41.032Z,7.67
2023-09-11T01:42:16.925Z,9.47
2023-09-11T01:44:51.810Z,9.47
2023-09-11T01:47:25.584Z,9.50
2023-09-11T01:49:58.074Z,8.83
2023-09-11T01:52:28.353Z,9.80
2023-09-11T01:54:59.949Z,8.37
2023-09-11T01:57:29.622Z,8.87
2023-09-11T01:59:59.919Z,9.97
2023-09-11T02:02:30.973Z,7.77
2023-09-11T02:04:59.997Z,8.23
2023-09-11T02:07:28.748Z,11.50
2023-09-11T02:09:57.447Z,9.37
2023-09-11T02:12:26.125Z,9.50
2023-09-11T02:14:54.796Z,10.07
2023-09-11T02:17:24.952Z,6.97
2023-09-11T02:19:53.758Z,8.60
2023-09-11T02:22:22.831Z,8.33
2023-09-11T02:24:51.586Z,9.50
2023-09-11T02:27:20.256Z,9.20
2023-09-11T02:29:49.066Z,8.87
2023-09-11T02:32:18.144Z,9.87
2023-09-11T02:34:48.272Z,10.07
2023-09-11T02:37:17.070Z,8.37
2023-09-11T02:39:45.761Z,10.40
2023-09-11T02:42:14.432Z,8.27
2023-09-11T02:44:44.474Z,9.23
2023-09-11T02:47:13.199Z,8.17
2023-09-11T02:49:42.252Z,11.73
2023-09-11T02:52:12.340Z,9.23
2023-09-11T02:54:43.970Z,9.10
2023-09-11T02:57:12.685Z,10.30
2023-09-11T02:59:41.631Z,8.40
2023-09-11T03:02:12.320Z,9.40
2023-09-11T03:04:42.424Z,9.23
2023-09-11T03:07:15.896Z,10.10
2023-09-11T03:09:44.607Z,9.33
2023-09-11T03:12:13.820Z,8.43
2023-09-11T03:14:42.671Z,9.57
2023-09-11T03:17:15.037Z,8.33
2023-09-11T03:19:44.010Z,10.23
2023-09-11T03:22:14.246Z,11.07
2023-09-11T03:24:42.993Z,9.80
2023-09-11T03:27:11.685Z,8.90
2023-09-11T03:29:40.472Z,10.57
2023-09-11T03:32:09.440Z,11.27
2023-09-11T03:34:39.431Z,10.87
2023-09-11T03:37:08.695Z,10.87
2023-09-11T03:39:38.874Z,11.33
2023-09-11T03:42:07.698Z,11.87
2023-09-11T03:44:36.915Z,9.47
2023-09-11T03:47:06.171Z,10.40
2023-09-11T03:49:35.079Z,11.30
2023-09-11T03:52:03.840Z,10.30
2023-09-11T03:54:32.539Z,12.07
2023-09-11T03:57:02.792Z,9.40
2023-09-11T03:59:31.650Z,11.67
2023-09-11T04:02:02.093Z,9.50
2023-09-11T04:04:32.076Z,12.23
2023-09-11T04:07:00.835Z,11.13
2023-09-11T04:09:32.423Z,10.13
2023-09-11T04:12:03.669Z,10.27
2023-09-11T04:14:32.658Z,11.03
2023-09-11T04:17:01.477Z,11.50
2023-09-11T04:19:30.187Z,10.50
2023-09-11T04:21:58.866Z,13.60
2023-09-11T04:24:27.654Z,13.77
2023-09-11T04:26:56.511Z,15.23
2023-09-11T04:29:30.733Z,11.73
2023-09-11T04:32:00.295Z,13.07
2023-09-11T04:34:30.394Z,13.67
2023-09-11T04:37:00.088Z,11.67
2023-09-11T04:39:29.076Z,14.10
2023-09-11T04:41:58.056Z,12.87
2023-09-11T04:44:28.408Z,12.10
2023-09-11T04:46:58.143Z,14.53
2023-09-11T04:49:28.115Z,12.37
2023-09-11T04:51:57.805Z,14.03
2023-09-11T04:54:26.608Z,15.03
2023-09-11T04:56:55.369Z,17.00
2023-09-11T04:59:24.634Z,15.67
2023-09-11T05:01:54.896Z,15.27
2023-09-11T05:04:23.875Z,17.50
2023-09-11T05:06:54.068Z,17.33
2023-09-11T05:09:22.954Z,18.17
2023-09-11T05:11:52.072Z,18.17
2023-09-11T05:14:20.946Z,17.93
2023-09-11T05:16:49.703Z,17.07
2023-09-11T05:19:20.246Z,16.13
2023-09-11T05:21:48.946Z,15.23
2023-09-11T05:24:17.660Z,17.33
2023-09-11T05:26:46.645Z,14.60
2023-09-11T05:29:15.579Z,16.90
2023-09-11T05:31:44.698Z,16.27
2023-09-11T05:34:13.544Z,18.43
2023-09-11T05:36:43.634Z,14.23
2023-09-11T05:39:12.564Z,15.63
2023-09-11T05:41:41.292Z,13.47
2023-09-11T05:44:09.995Z,15.13
2023-09-11T05:46:38.794Z,16.27
2023-09-11T05:49:07.521Z,14.90
2023-09-11T05:51:36.235Z,18.13
2023-09-11T05:54:06.768Z,15.53
2023-09-11T05:56:35.550Z,15.07
2023-09-11T05:59:04.316Z,16.07
2023-09-11T06:01:33.346Z,15.07
2023-09-11T06:04:02.354Z,13.63
2023-09-11T06:06:31.537Z,13.80
2023-09-11T06:09:01.080Z,15.67
2023-09-11T06:11:31.376Z,15.70
2023-09-11T06:14:00.105Z,14.40
2023-09-11T06:16:30.635Z,14.93
2023-09-11T06:19:00.517Z,11.63
2023-09-11T06:21:29.619Z,12.70
2023-09-11T06:23:58.396Z,13.97
2023-09-11T06:26:27.154Z,12.53
2023-09-11T06:28:57.288Z,14.17
2023-09-11T06:31:26.458Z,13.73
2023-09-11T06:33:55.395Z,13.00
2023-09-11T06:36:24.141Z,13.37
2023-09-11T06:38:53.063Z,13.43
2023-09-11T06:41:21.814Z,12.30
2023-09-11T06:43:50.540Z,13.90
2023-09-11T06:46:20.683Z,12.70
2023-09-11T06:48:49.515Z,13.10
2023-09-11T06:51:18.252Z,13.50
2023-09-11T06:53:47.166Z,11.63
2023-09-11T06:56:16.095Z,12.00
2023-09-11T06:58:44.740Z,11.60
2023-09-11T07:01:15.403Z,12.60
2023-09-11T07:03:48.131Z,13.57
2023-09-11T07:06:16.956Z,12.20
2023-09-11T07:08:45.724Z,13.07
2023-09-11T07:11:17.682Z,12.53
2023-09-11T07:13:47.093Z,11.50
2023-09-11T07:16:15.822Z,12.17
2023-09-11T07:18:46.450Z,12.90
2023-09-11T07:21:15.486Z,11.80
2023-09-11T07:23:44.244Z,12.03
2023-09-11T07:26:13.210Z,12.53
2023-09-11T07:29:04.167Z,12.77
2023-09-11T07:31:35.287Z,12.63
2023-09-11T07:34:05.855Z,16.83
2023-09-11T07:36:34.776Z,12.50
2023-09-11T07:39:03.494Z,12.73
2023-09-11T07:41:32.334Z,11.87
2023-09-11T07:44:01.083Z,11.33
2023-09-11T07:46:30.772Z,12.30
2023-09-11T07:49:00.536Z,11.53
2023-09-11T07:51:30.976Z,13.70
2023-09-11T07:54:00.075Z,12.68
2023-09-11T07:56:29.028Z,14.30
2023-09-11T07:58:57.726Z,12.50
2023-09-11T08:01:27.136Z,13.25
2023-09-11T08:03:56.498Z,12.52
2023-09-11T08:06:25.498Z,13.20
2023-09-11T08:08:57.316Z,14.43
2023-09-11T08:11:29.908Z,12.32
2023-09-11T08:13:58.846Z,13.18
2023-09-11T08:16:28.556Z,11.00
2023-09-11T08:18:57.403Z,10.45
2023-09-11T08:21:26.510Z,10.35
2023-09-11T08:23:56.679Z,11.05
2023-09-11T08:26:26.716Z,13.70
2023-09-11T08:28:55.357Z,11.88
2023-09-11T08:31:24.098Z,11.52
2023-09-11T08:33:55.804Z,15.10
2023-09-11T08:36:25.233Z,10.88
2023-09-11T08:38:55.482Z,10.95
2023-09-11T08:41:26.180Z,11.20
2023-09-11T08:43:55.328Z,12.43
2023-09-11T08:46:25.813Z,11.38
2023-09-11T08:49:00.760Z,8.98
2023-09-11T08:51:36.611Z,11.40
2023-09-11T08:54:11.048Z,9.02
2023-09-11T08:56:43.436Z,9.93
2023-09-11T08:59:16.568Z,9.55
2023-09-11T09:01:46.583Z,12.10
2023-09-11T09:04:17.414Z,11.48
2023-09-11T09:06:49.597Z,9.65
2023-09-11T09:09:21.256Z,9.65
2023-09-11T09:11:50.363Z,10.60
2023-09-11T09:14:21.174Z,10.60
2023-09-11T09:16:50.828Z,11.77
2023-09-11T09:19:20.654Z,15.48
2023-09-11T09:22:16.267Z,9.48
2023-09-11T09:24:55.125Z,8.23
2023-09-11T09:27:28.299Z,8.43
2023-09-11T09:29:57.187Z,9.43
2023-09-11T09:32:26.109Z,10.45
2023-09-11T09:34:57.294Z,11.50
2023-09-11T09:37:26.956Z,14.43
2023-09-11T09:39:57.209Z,10.40
2023-09-11T09:42:26.040Z,8.90
2023-09-11T09:44:56.517Z,7.97
2023-09-11T09:47:25.532Z,10.50
2023-09-11T09:49:56.159Z,11.52
2023-09-11T09:52:28.721Z,9.05
2023-09-11T09:55:03.213Z,11.40
2023-09-11T09:57:32.053Z,9.77
2023-09-11T10:00:03.745Z,9.02
2023-09-11T10:02:36.346Z,9.40
2023-09-11T10:05:09.831Z,9.13
2023-09-11T10:07:40.535Z,8.85
2023-09-11T10:10:26.128Z,7.65
2023-09-11T10:13:03.240Z,7.75
2023-09-11T10:15:34.962Z,9.07
2023-09-11T10:18:06.498Z,10.88
2023-09-11T10:20:36.399Z,8.77
2023-09-11T10:23:07.459Z,10.82
2023-09-11T10:25:41.772Z,10.73
2023-09-11T10:28:16.163Z,8.00
2023-09-11T10:31:07.572Z,8.18
2023-09-11T10:33:39.653Z,7.60
2023-09-11T10:36:14.728Z,9.45
2023-09-11T10:38:47.698Z,7.20
2023-09-11T10:41:18.318Z,7.53
2023-09-11T10:43:48.796Z,7.95
2023-09-11T10:46:34.111Z,8.75
2023-09-11T10:49:16.278Z,9.43
2023-09-11T10:51:46.978Z,9.82
2023-09-11T10:54:17.906Z,8.35
2023-09-11T10:56:48.441Z,9.88
2023-09-11T10:59:18.383Z,12.93
2023-09-11T11:01:48.741Z,11.35
2023-09-11T11:04:19.632Z,10.68
2023-09-11T11:06:51.090Z,10.55
2023-09-11T11:09:32.942Z,9.10
2023-09-11T11:12:07.819Z,12.25
2023-09-11T11:14:37.761Z,11.38
2023-09-11T11:17:09.801Z,10.23
2023-09-11T11:19:41.158Z,8.32
2023-09-11T11:22:30.388Z,11.82
2023-09-11T11:25:00.645Z,11.05
2023-09-11T11:27:30.838Z,9.55
2023-09-11T11:30:00.289Z,10.48
2023-09-11T11:32:32.646Z,9.38
2023-09-11T11:35:05.733Z,9.25
2023-09-11T11:37:37.731Z,8.65
2023-09-11T11:40:10.521Z,9.27
2023-09-11T11:42:42.542Z,9.68
2023-09-11T11:45:12.544Z,8.82
2023-09-11T11:47:42.988Z,11.02
2023-09-11T11:50:13.247Z,9.27
2023-09-11T11:52:47.794Z,10.55
2023-09-11T11:55:26.131Z,8.00
2023-09-11T11:57:56.686Z,9.25
2023-09-11T12:00:25.592Z,7.97
2023-09-11T12:02:54.728Z,9.73
2023-09-11T12:05:23.528Z,10.15
2023-09-11T12:07:52.353Z,12.75
2023-09-11T12:10:21.164Z,9.45
2023-09-11T12:12:50.009Z,7.75
2023-09-11T12:15:21.112Z,10.77
2023-09-11T12:17:52.027Z,9.93
2023-09-11T12:20:23.789Z,10.30
2023-09-11T12:22:52.611Z,10.80
2023-09-11T12:25:21.433Z,9.60
2023-09-11T12:27:50.432Z,8.10
2023-09-11T12:30:21.196Z,9.15
2023-09-11T12:32:51.485Z,8.30
2023-09-11T12:35:33.659Z,8.55
2023-09-11T12:38:02.555Z,7.25
2023-09-11T12:40:31.680Z,8.70
2023-09-11T12:43:00.598Z,7.63
2023-09-11T12:45:30.895Z,8.25
2023-09-11T12:48:00.224Z,8.15
2023-09-11T12:50:29.255Z,8.63
2023-09-11T12:52:58.771Z,6.80
2023-09-11T12:55:28.842Z,7.25
2023-09-11T12:57:58.414Z,8.85
2023-09-11T13:00:31.875Z,8.07
2023-09-11T13:03:02.761Z,17.90
2023-09-11T13:05:33.020Z,11.05
2023-09-11T13:08:02.318Z,8.15
2023-09-11T13:10:32.372Z,10.50
2023-09-11T13:13:01.178Z,9.73
2023-09-11T13:15:31.431Z,7.68
2023-09-11T13:18:00.299Z,6.35
2023-09-11T13:20:29.092Z,8.82
2023-09-11T13:22:57.789Z,7.75
2023-09-11T13:25:27.025Z,7.95
2023-09-11T13:27:55.993Z,6.65
2023-09-11T13:30:25.096Z,10.82
2023-09-11T13:32:55.524Z,7.63
2023-09-11T13:35:24.306Z,7.90
2023-09-11T13:37:53.253Z,7.78
2023-09-11T13:40:23.529Z,7.93
2023-09-11T13:42:54.176Z,8.75
2023-09-11T13:45:23.382Z,10.35
2023-09-11T13:47:54.203Z,8.02
2023-09-11T13:50:24.408Z,8.65
2023-09-11T13:52:54.276Z,8.85
2023-09-11T13:55:23.089Z,6.68
2023-09-11T13:57:51.681Z,7.78
2023-09-11T14:00:21.487Z,9.35
2023-09-11T14:02:50.439Z,7.53
2023-09-11T14:05:20.985Z,10.60
2023-09-11T14:07:56.949Z,6.90
2023-09-11T14:10:25.773Z,8.90
2023-09-11T14:12:54.437Z,8.10
2023-09-11T14:15:23.703Z,7.63
2023-09-11T14:17:52.394Z,6.60
2023-09-11T14:20:21.398Z,10.23
2023-09-11T14:22:53.691Z,8.65
2023-09-11T14:25:25.912Z,7.85
2023-09-11T14:27:54.905Z,8.25
2023-09-11T14:30:23.666Z,7.70
2023-09-11T14:32:52.998Z,8.05
2023-09-11T14:35:22.154Z,8.30
2023-09-11T14:37:51.041Z,8.07
2023-09-11T14:40:19.979Z,7.97
2023-09-11T14:42:50.086Z,8.10
2023-09-11T14:45:18.910Z,9.73
2023-09-11T14:47:48.952Z,7.18
2023-09-11T14:50:18.071Z,7.47
2023-09-11T14:52:46.812Z,7.95
2023-09-11T14:55:15.588Z,6.90
2023-09-11T14:57:44.508Z,7.13
2023-09-11T15:00:16.694Z,7.70
2023-09-11T15:02:45.699Z,7.85
2023-09-11T15:05:15.010Z,10.60
2023-09-11T15:07:43.811Z,8.40
2023-09-11T15:10:13.992Z,16.00
2023-09-11T15:12:42.702Z,9.30
2023-09-11T15:15:13.644Z,10.27
2023-09-11T15:17:43.894Z,9.35
2023-09-11T15:20:13.674Z,7.28
2023-09-11T15:22:42.539Z,10.10
2023-09-11T15:25:13.251Z,6.88
2023-09-11T15:27:42.240Z,6.85
2023-09-11T15:30:13.796Z,6.47
2023-09-11T15:32:42.585Z,6.82
2023-09-11T15:35:12.651Z,11.30
2023-09-11T15:37:41.445Z,8.95
2023-09-11T15:40:11.128Z,11.13
2023-09-11T15:42:40.058Z,9.60
2023-09-11T15:45:11.990Z,9.23
2023-09-11T15:47:42.547Z,8.52
2023-09-11T15:50:12.091Z,10.23
2023-09-11T15:52:42.398Z,9.20
2023-09-11T15:55:11.462Z,11.32
2023-09-11T15:57:40.204Z,9.98
2023-09-11T16:00:11.791Z,7.82
2023-09-11T16:02:42.421Z,11.98
2023-09-11T16:05:11.415Z,18.88
2023-09-11T16:07:40.191Z,12.88
2023-09-11T16:10:10.653Z,11.60
2023-09-11T16:12:39.805Z,9.93
2023-09-11T16:15:12.349Z,9.25
2023-09-11T16:17:43.275Z,9.20
2023-09-11T16:20:13.910Z,10.20
2023-09-11T16:22:44.627Z,10.52
2023-09-11T16:25:14.159Z,8.38
2023-09-11T16:27:43.395Z,8.65
2023-09-11T16:30:13.243Z,10.32
2023-09-11T16:32:44.329Z,7.63
2023-09-11T16:35:14.990Z,8.35
2023-09-11T16:37:45.106Z,12.52
2023-09-11T16:40:13.941Z,14.30
2023-09-11T16:42:46.510Z,10.10
2023-09-11T16:45:16.444Z,7.45
2023-09-11T16:47:47.208Z,11.48
2023-09-11T16:50:19.701Z,11.10
2023-09-11T16:52:49.558Z,8.60
2023-09-11T16:55:18.525Z,13.48
2023-09-11T16:57:47.398Z,11.90
2023-09-11T17:00:18.449Z,9.32
2023-09-11T17:02:48.949Z,12.25
2023-09-11T17:05:18.194Z,8.85
2023-09-11T17:07:48.026Z,8.45
2023-09-11T17:10:16.901Z,12.02
2023-09-11T17:12:46.209Z,12.48
2023-09-11T17:15:15.457Z,12.73
2023-09-11T17:17:46.608Z,9.02
2023-09-11T17:20:18.508Z,10.45
2023-09-11T17:22:47.752Z,12.68
2023-09-11T17:25:17.549Z,9.38
2023-09-11T17:27:46.397Z,18.20
2023-09-11T17:30:16.199Z,13.93
2023-09-11T17:32:46.300Z,11.82
2023-09-11T17:35:15.248Z,15.68
2023-09-11T17:37:45.610Z,18.67
2023-09-11T17:40:14.496Z,20.08
2023-09-11T17:42:44.301Z,13.63
2023-09-11T17:45:13.394Z,11.23
2023-09-11T17:47:43.514Z,11.57
2023-09-11T17:50:12.442Z,12.63
2023-09-11T17:52:41.197Z,11.85
2023-09-11T17:55:11.633Z,12.98
2023-09-11T17:57:40.476Z,11.55
2023-09-11T18:00:11.243Z,10.90
2023-09-11T18:02:41.064Z,10.40
2023-09-11T18:05:10.163Z,12.25
2023-09-11T18:07:40.900Z,11.90
2023-09-11T18:10:12.334Z,8.50
2023-09-11T18:12:41.196Z,10.52
2023-09-11T18:15:11.009Z,10.02
2023-09-11T18:17:43.611Z,11.00
2023-09-11T18:20:13.789Z,12.82
2023-09-11T18:22:43.115Z,12.45
2023-09-11T18:25:13.819Z,13.38
2023-09-11T18:27:43.030Z,12.43
2023-09-11T18:30:13.025Z,11.68
2023-09-11T18:32:42.477Z,12.40
2023-09-11T18:35:12.657Z,12.50
2023-09-11T18:37:42.084Z,9.75
2023-09-11T18:40:13.330Z,10.95
2023-09-11T18:42:42.361Z,9.00
2023-09-11T18:45:13.333Z,9.73
2023-09-11T18:47:42.080Z,8.05
2023-09-11T18:50:15.502Z,8.63
2023-09-11T18:52:46.057Z,10.00
2023-09-11T18:55:16.422Z,10.18
2023-09-11T18:57:45.187Z,11.38
2023-09-11T19:00:16.540Z,12.63
2023-09-11T19:02:45.457Z,10.15
2023-09-11T19:05:14.099Z,11.20
2023-09-11T19:07:43.798Z,11.18
2023-09-11T19:10:13.165Z,9.05
2023-09-11T19:12:44.267Z,9.40
2023-09-11T19:15:14.010Z,11.15
2023-09-11T19:17:42.840Z,10.00
2023-09-11T19:20:13.480Z,12.90
2023-09-11T19:22:42.249Z,8.57
2023-09-11T19:25:11.783Z,10.20
2023-09-11T19:27:42.398Z,9.73
2023-09-11T19:30:12.944Z,9.90
2023-09-11T19:32:42.270Z,9.20
2023-09-11T19:35:11.283Z,11.45
2023-09-11T19:37:40.585Z,8.40
2023-09-11T19:40:11.548Z,7.78
2023-09-11T19:42:40.290Z,8.32
2023-09-11T19:45:11.595Z,9.85
2023-09-11T19:47:41.468Z,11.23
2023-09-11T19:50:13.913Z,10.30
2023-09-11T19:52:43.094Z,10.68
2023-09-11T19:55:13.662Z,10.05
2023-09-11T19:57:44.184Z,9.32
2023-09-11T20:00:17.154Z,11.38
2023-09-11T20:02:46.082Z,11.10
2023-09-11T20:05:16.060Z,9.57
2023-09-11T20:07:45.974Z,9.40
2023-09-11T20:10:15.315Z,9.85
2023-09-11T20:12:45.483Z,9.00
2023-09-11T20:15:15.682Z,10.57
2023-09-11T20:17:44.592Z,9.40
2023-09-11T20:20:14.566Z,9.52
2023-09-11T20:22:43.285Z,10.20
2023-09-11T20:25:12.442Z,12.43
2023-09-11T20:27:42.553Z,8.63
2023-09-11T20:30:12.412Z,9.52
2023-09-11T20:32:42.606Z,9.15
2023-09-11T20:35:14.488Z,11.10
2023-09-11T20:37:43.157Z,10.48
2023-09-11T20:40:13.373Z,9.30
2023-09-11T20:42:43.775Z,9.50
2023-09-11T20:45:13.266Z,10.25
2023-09-11T20:47:44.026Z,10.55
2023-09-11T20:50:13.274Z,11.50
2023-09-11T20:52:42.768Z,11.43
2023-09-11T20:55:12.572Z,10.27
2023-09-11T20:57:41.704Z,9.30
2023-09-11T21:00:13.605Z,10.57
2023-09-11T21:02:43.916Z,16.17
2023-09-11T21:05:12.653Z,9.00
2023-09-11T21:07:41.315Z,11.80
2023-09-11T21:10:11.819Z,10.35
2023-09-11T21:12:51.430Z,10.50
2023-09-11T21:15:20.547Z,10.65
2023-09-11T21:17:51.548Z,12.38
2023-09-11T21:20:20.822Z,9.13
2023-09-11T21:22:49.795Z,10.15
2023-09-11T21:25:18.697Z,9.25
2023-09-11T21:27:47.904Z,9.85
2023-09-11T21:30:17.111Z,8.98
2023-09-11T21:32:47.802Z,12.65
2023-09-11T21:35:19.062Z,10.50
2023-09-11T21:37:47.971Z,8.77
2023-09-11T21:40:16.887Z,9.65
2023-09-11T21:42:45.966Z,11.57
2023-09-11T21:45:17.276Z,9.73
2023-09-11T21:47:47.253Z,12.77
2023-09-11T21:50:18.119Z,7.97
2023-09-11T21:52:47.499Z,10.00
2023-09-11T21:55:17.281Z,8.90
2023-09-11T21:57:45.934Z,8.18
2023-09-11T22:00:16.144Z,10.35
2023-09-11T22:02:45.153Z,10.98
2023-09-11T22:05:14.168Z,9.48
2023-09-11T22:07:44.454Z,8.30
2023-09-11T22:10:13.302Z,9.07
2023-09-11T22:12:42.199Z,10.57
2023-09-11T22:15:12.147Z,8.35
2023-09-11T22:17:40.812Z,9.80
2023-09-11T22:20:10.688Z,9.25
2023-09-11T22:22:39.402Z,9.60
2023-09-11T22:25:10.759Z,8.77
2023-09-11T22:27:39.462Z,11.32
2023-09-11T22:30:10.148Z,10.95
2023-09-11T22:32:53.306Z,8.55
2023-09-11T22:35:23.911Z,9.02
2023-09-11T22:37:53.207Z,8.53
2023-09-11T22:40:23.478Z,8.23
2023-09-11T22:42:52.200Z,9.50
2023-09-11T22:45:20.905Z,10.65
2023-09-11T22:47:50.575Z,9.30
2023-09-11T22:50:20.694Z,7.93
2023-09-11T22:52:49.426Z,8.10
2023-09-11T22:55:19.819Z,8.00
2023-09-11T22:57:55.292Z,8.82
2023-09-11T23:00:24.723Z,9.30
2023-09-11T23:02:53.470Z,12.48
2023-09-11T23:05:22.508Z,9.85
2023-09-11T23:07:51.195Z,9.43
2023-09-11T23:10:20.155Z,8.67
2023-09-11T23:12:50.216Z,10.02
2023-09-11T23:15:19.135Z,9.73
2023-09-11T23:17:48.605Z,8.93
2023-09-11T23:20:17.838Z,9.43
2023-09-11T23:22:46.597Z,11.70
2023-09-11T23:25:15.387Z,10.87
2023-09-11T23:27:44.126Z,7.97
2023-09-11T23:30:16.187Z,11.50
2023-09-11T23:32:46.068Z,8.80
2023-09-11T23:35:14.800Z,9.57
2023-09-11T23:37:43.501Z,8.73
2023-09-11T23:40:13.742Z,8.50
2023-09-11T23:42:42.480Z,10.47
2023-09-11T23:45:11.516Z,9.00
2023-09-11T23:47:41.625Z,8.37
2023-09-11T23:50:11.641Z,9.13
2023-09-11T23:52:40.360Z,9.80
2023-09-11T23:55:10.940Z,9.50
2023-09-11T23:57:39.854Z,9.87
